sensor_id;sensor_type;location;lat;lon;timestamp;pressure;altitude;pressure_sealevel;temperature;humidity
28648;BME280;17137;51.494;-0.262;2023-07-20T00:00:01;49870.22;;;-145.72;50.56
28648;BME280;17137;51.494;-0.262;2023-07-20T00:00:32;49859.25;;;-145.72;50.38
28648;BME280;17137;51.494;-0.262;2023-07-20T00:01:02;49862.21;;;-145.72;50.27
28648;BME280;17137;51.494;-0.262;2023-07-20T00:01:32;49852.35;;;-145.72;50.18
28648;BME280;17137;51.494;-0.262;2023-07-20T00:02:03;49860.36;;;-145.72;50.06
28648;BME280;17137;51.494;-0.262;2023-07-20T00:02:34;49865.29;;;-145.72;50.06
28648;BME280;17137;51.494;-0.262;2023-07-20T00:03:10;49860.98;;;-145.72;49.94
28648;BME280;17137;51.494;-0.262;2023-07-20T00:03:41;49869.85;;;-145.72;50.00
28648;BME280;17137;51.494;-0.262;2023-07-20T00:04:13;49867.51;;;-145.72;50.01
28648;BME280;17137;51.494;-0.262;2023-07-20T00:04:43;49863.69;;;-145.72;49.89
28648;BME280;17137;51.494;-0.262;2023-07-20T00:05:14;49868.75;;;-145.72;49.98
28648;BME280;17137;51.494;-0.262;2023-07-20T00:05:44;49868.50;;;-145.72;50.14
28648;BME280;17137;51.494;-0.262;2023-07-20T00:06:14;49865.05;;;-145.72;50.00
28648;BME280;17137;51.494;-0.262;2023-07-20T00:06:45;49862.46;;;-145.72;49.89
28648;BME280;17137;51.494;-0.262;2023-07-20T00:07:15;49857.16;;;-145.72;49.92
28648;BME280;17137;51.494;-0.262;2023-07-20T00:07:45;49866.16;;;-145.72;49.91
28648;BME280;17137;51.494;-0.262;2023-07-20T00:08:16;49865.79;;;-145.72;50.01
28648;BME280;17137;51.494;-0.262;2023-07-20T00:08:46;49871.21;;;-145.72;49.97
28648;BME280;17137;51.494;-0.262;2023-07-20T00:09:16;49878.11;;;-145.72;49.92
28648;BME280;17137;51.494;-0.262;2023-07-20T00:09:47;49871.46;;;-145.72;49.87
28648;BME280;17137;51.494;-0.262;2023-07-20T00:10:17;49877.25;;;-145.72;50.05
28648;BME280;17137;51.494;-0.262;2023-07-20T00:10:47;49871.58;;;-145.72;50.00
28648;BME280;17137;51.494;-0.262;2023-07-20T00:11:18;49868.13;;;-145.72;49.94
28648;BME280;17137;51.494;-0.262;2023-07-20T00:11:49;49862.09;;;-145.72;49.87
28648;BME280;17137;51.494;-0.262;2023-07-20T00:12:25;49866.28;;;-145.72;49.91
28648;BME280;17137;51.494;-0.262;2023-07-20T00:12:55;49867.39;;;-145.72;49.85
28648;BME280;17137;51.494;-0.262;2023-07-20T00:13:25;49863.94;;;-145.72;49.88
28648;BME280;17137;51.494;-0.262;2023-07-20T00:13:56;49859.62;;;-145.72;49.86
28648;BME280;17137;51.494;-0.262;2023-07-20T00:14:26;49861.60;;;-145.72;49.94
28648;BME280;17137;51.494;-0.262;2023-07-20T00:14:56;49873.18;;;-145.72;50.06
28648;BME280;17137;51.494;-0.262;2023-07-20T00:15:26;49869.98;;;-145.72;50.05
28648;BME280;17137;51.494;-0.262;2023-07-20T00:15:56;49865.17;;;-145.72;50.04
28648;BME280;17137;51.494;-0.262;2023-07-20T00:16:27;49870.47;;;-145.72;50.05
28648;BME280;17137;51.494;-0.262;2023-07-20T00:16:57;49854.45;;;-145.72;50.32
28648;BME280;17137;51.494;-0.262;2023-07-20T00:17:27;49864.31;;;-145.72;50.27
28648;BME280;17137;51.494;-0.262;2023-07-20T00:17:58;49864.18;;;-145.72;50.25
28648;BME280;17137;51.494;-0.262;2023-07-20T00:18:28;49870.72;;;-145.72;50.27
28648;BME280;17137;51.494;-0.262;2023-07-20T00:18:58;49869.73;;;-145.72;50.92
28648;BME280;17137;51.494;-0.262;2023-07-20T00:19:28;49875.28;;;-145.72;51.76
28648;BME280;17137;51.494;-0.262;2023-07-20T00:19:58;49879.96;;;-145.72;51.76
28648;BME280;17137;51.494;-0.262;2023-07-20T00:20:29;49878.48;;;-145.72;51.75
28648;BME280;17137;51.494;-0.262;2023-07-20T00:20:59;49880.82;;;-145.72;51.67
28648;BME280;17137;51.494;-0.262;2023-07-20T00:21:29;49887.85;;;-145.72;52.36
28648;BME280;17137;51.494;-0.262;2023-07-20T00:21:59;49910.16;;;-145.72;53.90
28648;BME280;17137;51.494;-0.262;2023-07-20T00:22:30;49895.00;;;-145.72;53.76
28648;BME280;17137;51.494;-0.262;2023-07-20T00:23:00;49891.05;;;-145.72;53.54
28648;BME280;17137;51.494;-0.262;2023-07-20T00:23:30;49896.72;;;-145.72;53.72
28648;BME280;17137;51.494;-0.262;2023-07-20T00:24:00;49894.01;;;-145.72;54.26
28648;BME280;17137;51.494;-0.262;2023-07-20T00:24:31;49902.64;;;-145.72;54.09
28648;BME280;17137;51.494;-0.262;2023-07-20T00:25:01;49899.31;;;-145.72;54.10
28648;BME280;17137;51.494;-0.262;2023-07-20T00:25:31;49905.72;;;-145.72;54.02
28648;BME280;17137;51.494;-0.262;2023-07-20T00:26:02;49892.66;;;-145.72;53.67
28648;BME280;17137;51.494;-0.262;2023-07-20T00:26:32;49889.70;;;-145.72;53.86
28648;BME280;17137;51.494;-0.262;2023-07-20T00:27:02;49893.52;;;-145.72;53.97
28648;BME280;17137;51.494;-0.262;2023-07-20T00:27:33;49892.78;;;-145.72;53.82
28648;BME280;17137;51.494;-0.262;2023-07-20T00:28:03;49890.07;;;-145.72;53.67
28648;BME280;17137;51.494;-0.262;2023-07-20T00:28:34;49891.55;;;-145.72;53.70
28648;BME280;17137;51.494;-0.262;2023-07-20T00:29:04;49892.16;;;-145.72;53.85
28648;BME280;17137;51.494;-0.262;2023-07-20T00:29:34;49893.40;;;-145.72;53.71
28648;BME280;17137;51.494;-0.262;2023-07-20T00:30:06;49896.23;;;-145.72;53.78
28648;BME280;17137;51.494;-0.262;2023-07-20T00:30:38;49891.05;;;-145.72;53.64
28648;BME280;17137;51.494;-0.262;2023-07-20T00:31:13;49876.88;;;-145.72;53.57
28648;BME280;17137;51.494;-0.262;2023-07-20T00:31:43;49886.00;;;-145.72;53.44
28648;BME280;17137;51.494;-0.262;2023-07-20T00:32:14;49882.06;;;-145.72;53.47
28648;BME280;17137;51.494;-0.262;2023-07-20T00:32:44;49890.32;;;-145.72;53.67
28648;BME280;17137;51.494;-0.262;2023-07-20T00:33:17;49892.16;;;-145.72;53.70
28648;BME280;17137;51.494;-0.262;2023-07-20T00:33:48;49885.38;;;-145.72;53.69
28648;BME280;17137;51.494;-0.262;2023-07-20T00:34:18;49887.60;;;-145.72;53.85
28648;BME280;17137;51.494;-0.262;2023-07-20T00:34:48;49871.58;;;-145.72;53.77
28648;BME280;17137;51.494;-0.262;2023-07-20T00:35:18;49893.15;;;-145.72;53.86
28648;BME280;17137;51.494;-0.262;2023-07-20T00:35:49;49890.93;;;-145.72;54.12
28648;BME280;17137;51.494;-0.262;2023-07-20T00:36:19;49886.99;;;-145.72;53.90
28648;BME280;17137;51.494;-0.262;2023-07-20T00:36:49;49889.70;;;-145.72;53.92
28648;BME280;17137;51.494;-0.262;2023-07-20T00:37:19;49889.70;;;-145.72;54.03
28648;BME280;17137;51.494;-0.262;2023-07-20T00:37:49;49890.07;;;-145.72;53.96
28648;BME280;17137;51.494;-0.262;2023-07-20T00:38:20;49884.40;;;-145.72;53.91
28648;BME280;17137;51.494;-0.262;2023-07-20T00:38:50;49886.49;;;-145.72;53.97
28648;BME280;17137;51.494;-0.262;2023-07-20T00:39:20;49880.45;;;-145.72;53.76
28648;BME280;17137;51.494;-0.262;2023-07-20T00:39:51;49887.85;;;-145.72;53.64
28648;BME280;17137;51.494;-0.262;2023-07-20T00:40:26;49882.67;;;-145.72;53.87
28648;BME280;17137;51.494;-0.262;2023-07-20T00:40:56;49882.55;;;-145.72;53.74
28648;BME280;17137;51.494;-0.262;2023-07-20T00:41:26;49901.16;;;-145.72;54.88
28648;BME280;17137;51.494;-0.262;2023-07-20T00:41:57;49897.59;;;-145.72;54.77
28648;BME280;17137;51.494;-0.262;2023-07-20T00:42:27;49897.71;;;-145.72;55.10
28648;BME280;17137;51.494;-0.262;2023-07-20T00:42:57;49897.22;;;-145.72;55.29
28648;BME280;17137;51.494;-0.262;2023-07-20T00:43:27;49904.86;;;-145.72;55.29
28648;BME280;17137;51.494;-0.262;2023-07-20T00:43:58;49904.24;;;-145.72;55.00
28648;BME280;17137;51.494;-0.262;2023-07-20T00:44:28;49897.09;;;-145.72;54.96
28648;BME280;17137;51.494;-0.262;2023-07-20T00:44:58;49904.49;;;-145.72;55.99
28648;BME280;17137;51.494;-0.262;2023-07-20T00:45:29;49911.64;;;-145.72;56.45
28648;BME280;17137;51.494;-0.262;2023-07-20T00:46:00;49915.58;;;-145.72;56.10
28648;BME280;17137;51.494;-0.262;2023-07-20T00:46:31;49907.45;;;-145.72;55.65
28648;BME280;17137;51.494;-0.262;2023-07-20T00:47:02;49893.27;;;-145.72;55.44
28648;BME280;17137;51.494;-0.262;2023-07-20T00:47:38;49894.75;;;-145.72;55.28
28648;BME280;17137;51.494;-0.262;2023-07-20T00:48:08;49908.93;;;-145.72;56.36
28648;BME280;17137;51.494;-0.262;2023-07-20T00:48:38;49911.64;;;-145.72;56.62
28648;BME280;17137;51.494;-0.262;2023-07-20T00:49:09;49899.81;;;-145.72;56.15
28648;BME280;17137;51.494;-0.262;2023-07-20T00:49:40;49891.92;;;-145.72;55.74
28648;BME280;17137;51.494;-0.262;2023-07-20T00:50:10;49911.76;;;-145.72;55.71
28648;BME280;17137;51.494;-0.262;2023-07-20T00:50:40;49911.76;;;-145.72;56.29
28648;BME280;17137;51.494;-0.262;2023-07-20T00:51:11;49922.12;;;-145.72;56.90
28648;BME280;17137;51.494;-0.262;2023-07-20T00:51:42;49902.64;;;-145.72;56.52
28648;BME280;17137;51.494;-0.262;2023-07-20T00:52:13;49902.76;;;-145.72;56.19
28648;BME280;17137;51.494;-0.262;2023-07-20T00:52:44;49899.81;;;-145.72;55.88
28648;BME280;17137;51.494;-0.262;2023-07-20T00:53:14;49893.52;;;-145.72;55.73
28648;BME280;17137;51.494;-0.262;2023-07-20T00:53:45;49907.69;;;-145.72;55.60
28648;BME280;17137;51.494;-0.262;2023-07-20T00:54:15;49897.22;;;-145.72;55.58
28648;BME280;17137;51.494;-0.262;2023-07-20T00:54:46;49902.02;;;-145.72;55.54
28648;BME280;17137;51.494;-0.262;2023-07-20T00:55:18;49906.58;;;-145.72;55.65
28648;BME280;17137;51.494;-0.262;2023-07-20T00:55:48;49899.93;;;-145.72;55.50
28648;BME280;17137;51.494;-0.262;2023-07-20T00:56:19;49894.63;;;-145.72;55.41
28648;BME280;17137;51.494;-0.262;2023-07-20T00:56:49;49899.68;;;-145.72;55.37
28648;BME280;17137;51.494;-0.262;2023-07-20T00:57:20;49899.68;;;-145.72;55.50
28648;BME280;17137;51.494;-0.262;2023-07-20T00:57:51;49896.72;;;-145.72;55.46
28648;BME280;17137;51.494;-0.262;2023-07-20T00:58:21;49909.67;;;-145.72;55.67
28648;BME280;17137;51.494;-0.262;2023-07-20T00:58:52;49903.01;;;-145.72;55.58
28648;BME280;17137;51.494;-0.262;2023-07-20T00:59:23;49896.11;;;-145.72;55.56
28648;BME280;17137;51.494;-0.262;2023-07-20T00:59:53;49901.78;;;-145.72;55.51
28648;BME280;17137;51.494;-0.262;2023-07-20T01:00:24;49899.19;;;-145.72;55.53
28648;BME280;17137;51.494;-0.262;2023-07-20T01:00:54;49902.89;;;-145.72;55.61
28648;BME280;17137;51.494;-0.262;2023-07-20T01:01:24;49897.09;;;-145.72;55.58
28648;BME280;17137;51.494;-0.262;2023-07-20T01:01:54;49909.91;;;-145.72;56.06
28648;BME280;17137;51.494;-0.262;2023-07-20T01:02:25;49903.87;;;-145.72;55.97
28648;BME280;17137;51.494;-0.262;2023-07-20T01:03:00;49901.53;;;-145.72;55.72
28648;BME280;17137;51.494;-0.262;2023-07-20T01:03:30;49903.26;;;-145.72;55.55
28648;BME280;17137;51.494;-0.262;2023-07-20T01:04:00;49898.57;;;-145.72;55.63
28648;BME280;17137;51.494;-0.262;2023-07-20T01:04:31;49900.92;;;-145.72;55.56
28648;BME280;17137;51.494;-0.262;2023-07-20T01:05:01;49898.57;;;-145.72;55.57
28648;BME280;17137;51.494;-0.262;2023-07-20T01:05:38;49901.16;;;-145.72;55.58
28648;BME280;17137;51.494;-0.262;2023-07-20T01:06:15;49896.23;;;-145.72;55.56
28648;BME280;17137;51.494;-0.262;2023-07-20T01:06:58;49904.00;;;-145.72;55.53
28648;BME280;17137;51.494;-0.262;2023-07-20T01:07:34;49899.81;;;-145.72;55.51
28648;BME280;17137;51.494;-0.262;2023-07-20T01:08:09;49908.56;;;-145.72;55.57
28648;BME280;17137;51.494;-0.262;2023-07-20T01:08:49;49896.97;;;-145.72;55.73
28648;BME280;17137;51.494;-0.262;2023-07-20T01:09:28;49898.82;;;-145.72;55.69
28648;BME280;17137;51.494;-0.262;2023-07-20T01:10:05;49896.72;;;-145.72;55.68
28648;BME280;17137;51.494;-0.262;2023-07-20T01:10:41;49898.82;;;-145.72;55.65
28648;BME280;17137;51.494;-0.262;2023-07-20T01:11:17;49896.48;;;-145.72;55.70
28648;BME280;17137;51.494;-0.262;2023-07-20T01:12:06;49915.71;;;-145.72;56.01
28648;BME280;17137;51.494;-0.262;2023-07-20T01:12:41;49907.69;;;-145.72;55.90
28648;BME280;17137;51.494;-0.262;2023-07-20T01:13:14;49909.30;;;-145.72;56.20
28648;BME280;17137;51.494;-0.262;2023-07-20T01:13:44;49902.27;;;-145.72;56.35
28648;BME280;17137;51.494;-0.262;2023-07-20T01:14:16;49910.78;;;-145.72;56.89
28648;BME280;17137;51.494;-0.262;2023-07-20T01:14:46;49898.33;;;-145.72;56.66
28648;BME280;17137;51.494;-0.262;2023-07-20T01:15:17;49912.13;;;-145.72;56.87
28648;BME280;17137;51.494;-0.262;2023-07-20T01:15:49;49909.54;;;-145.72;56.68
28648;BME280;17137;51.494;-0.262;2023-07-20T01:16:20;49909.79;;;-145.72;56.95
28648;BME280;17137;51.494;-0.262;2023-07-20T01:16:55;49908.93;;;-145.72;57.52
28648;BME280;17137;51.494;-0.262;2023-07-20T01:17:25;49912.75;;;-145.72;57.82
28648;BME280;17137;51.494;-0.262;2023-07-20T01:17:55;49925.69;;;-145.72;58.26
28648;BME280;17137;51.494;-0.262;2023-07-20T01:18:26;49911.15;;;-145.72;57.78
28648;BME280;17137;51.494;-0.262;2023-07-20T01:18:56;49917.06;;;-145.72;57.99
28648;BME280;17137;51.494;-0.262;2023-07-20T01:19:26;49914.60;;;-145.72;57.91
28648;BME280;17137;51.494;-0.262;2023-07-20T01:19:56;49918.66;;;-145.72;58.49
28648;BME280;17137;51.494;-0.262;2023-07-20T01:20:28;49911.02;;;-145.72;58.67
28648;BME280;17137;51.494;-0.262;2023-07-20T01:21:05;49936.91;;;-145.72;59.51
28648;BME280;17137;51.494;-0.262;2023-07-20T01:21:43;49924.95;;;-145.72;59.26
28648;BME280;17137;51.494;-0.262;2023-07-20T01:22:33;49926.92;;;-145.72;59.03
28648;BME280;17137;51.494;-0.262;2023-07-20T01:23:28;49935.67;;;-145.72;58.84
28648;BME280;17137;51.494;-0.262;2023-07-20T01:24:23;49919.28;;;-145.72;58.79
28648;BME280;17137;51.494;-0.262;2023-07-20T01:25:10;49920.39;;;-145.72;58.54
28648;BME280;17137;51.494;-0.262;2023-07-20T01:25:58;49923.35;;;-145.72;58.78
28648;BME280;17137;51.494;-0.262;2023-07-20T01:26:44;49913.36;;;-145.72;58.57
28648;BME280;17137;51.494;-0.262;2023-07-20T01:27:43;49913.98;;;-145.72;58.77
28648;BME280;17137;51.494;-0.262;2023-07-20T01:28:44;49934.07;;;-145.72;60.96
28648;BME280;17137;51.494;-0.262;2023-07-20T01:29:31;49927.05;;;-145.72;59.90
28648;BME280;17137;51.494;-0.262;2023-07-20T01:30:34;49923.59;;;-145.72;60.34
28648;BME280;17137;51.494;-0.262;2023-07-20T01:31:18;49929.39;;;-145.72;60.55
28648;BME280;17137;51.494;-0.262;2023-07-20T01:31:51;49930.25;;;-145.72;60.87
28648;BME280;17137;51.494;-0.262;2023-07-20T01:32:23;49939.25;;;-145.72;61.03
28648;BME280;17137;51.494;-0.262;2023-07-20T01:32:55;49934.93;;;-145.72;60.97
28648;BME280;17137;51.494;-0.262;2023-07-20T01:33:27;49935.18;;;-145.72;60.79
28648;BME280;17137;51.494;-0.262;2023-07-20T01:34:00;49935.92;;;-145.72;60.49
28648;BME280;17137;51.494;-0.262;2023-07-20T01:34:32;49939.12;;;-145.72;60.76
28648;BME280;17137;51.494;-0.262;2023-07-20T01:35:06;49931.36;;;-145.72;61.29
28648;BME280;17137;51.494;-0.262;2023-07-20T01:35:37;49948.99;;;-145.72;61.80
28648;BME280;17137;51.494;-0.262;2023-07-20T01:36:14;49953.05;;;-145.72;62.50
28648;BME280;17137;51.494;-0.262;2023-07-20T01:36:45;49950.83;;;-145.72;62.46
28648;BME280;17137;51.494;-0.262;2023-07-20T01:37:17;49945.41;;;-145.72;61.99
28648;BME280;17137;51.494;-0.262;2023-07-20T01:37:48;49934.69;;;-145.72;61.67
28648;BME280;17137;51.494;-0.262;2023-07-20T01:38:19;49931.24;;;-145.72;61.69
28648;BME280;17137;51.494;-0.262;2023-07-20T01:38:51;49939.74;;;-145.72;61.65
28648;BME280;17137;51.494;-0.262;2023-07-20T01:39:22;49934.44;;;-145.72;61.57
28648;BME280;17137;51.494;-0.262;2023-07-20T01:39:54;49945.16;;;-145.72;62.37
28648;BME280;17137;51.494;-0.262;2023-07-20T01:40:25;49951.94;;;-145.72;63.35
28648;BME280;17137;51.494;-0.262;2023-07-20T01:40:57;49953.30;;;-145.72;63.52
28648;BME280;17137;51.494;-0.262;2023-07-20T01:41:28;49945.04;;;-145.72;62.97
28648;BME280;17137;51.494;-0.262;2023-07-20T01:41:58;49944.30;;;-145.72;62.69
28648;BME280;17137;51.494;-0.262;2023-07-20T01:42:29;49943.32;;;-145.72;62.88
28648;BME280;17137;51.494;-0.262;2023-07-20T01:42:59;49940.11;;;-145.72;62.96
28648;BME280;17137;51.494;-0.262;2023-07-20T01:43:30;49950.83;;;-145.72;62.78
28648;BME280;17137;51.494;-0.262;2023-07-20T01:44:00;49940.85;;;-145.72;62.57
28648;BME280;17137;51.494;-0.262;2023-07-20T01:44:30;49942.08;;;-145.72;62.33
28648;BME280;17137;51.494;-0.262;2023-07-20T01:45:00;49944.06;;;-145.72;62.55
28648;BME280;17137;51.494;-0.262;2023-07-20T01:45:30;49938.63;;;-145.72;62.32
28648;BME280;17137;51.494;-0.262;2023-07-20T01:46:01;49938.51;;;-145.72;62.28
28648;BME280;17137;51.494;-0.262;2023-07-20T01:46:31;49940.60;;;-145.72;62.64
28648;BME280;17137;51.494;-0.262;2023-07-20T01:47:01;49943.81;;;-145.72;63.16
28648;BME280;17137;51.494;-0.262;2023-07-20T01:47:31;49947.01;;;-145.72;63.36
28648;BME280;17137;51.494;-0.262;2023-07-20T01:48:02;49942.45;;;-145.72;63.06
28648;BME280;17137;51.494;-0.262;2023-07-20T01:48:32;49953.67;;;-145.72;63.62
28648;BME280;17137;51.494;-0.262;2023-07-20T01:49:02;49949.11;;;-145.72;64.16
28648;BME280;17137;51.494;-0.262;2023-07-20T01:49:32;49956.38;;;-145.72;64.40
28648;BME280;17137;51.494;-0.262;2023-07-20T01:50:03;49945.78;;;-145.72;64.29
28648;BME280;17137;51.494;-0.262;2023-07-20T01:50:34;49952.81;;;-145.72;64.28
28648;BME280;17137;51.494;-0.262;2023-07-20T01:51:04;49942.33;;;-145.72;63.83
28648;BME280;17137;51.494;-0.262;2023-07-20T01:51:34;49941.47;;;-145.72;63.66
28648;BME280;17137;51.494;-0.262;2023-07-20T01:52:05;49957.00;;;-145.72;64.38
28648;BME280;17137;51.494;-0.262;2023-07-20T01:52:36;49948.25;;;-145.72;64.22
28648;BME280;17137;51.494;-0.262;2023-07-20T01:53:06;49965.01;;;-145.72;65.12
28648;BME280;17137;51.494;-0.262;2023-07-20T01:53:36;49960.82;;;-145.72;65.12
28648;BME280;17137;51.494;-0.262;2023-07-20T01:54:06;49949.48;;;-145.72;64.72
28648;BME280;17137;51.494;-0.262;2023-07-20T01:54:36;49977.95;;;-145.72;65.99
28648;BME280;17137;51.494;-0.262;2023-07-20T01:55:08;49972.40;;;-145.72;66.07
28648;BME280;17137;51.494;-0.262;2023-07-20T01:55:38;49969.32;;;-145.72;65.42
28648;BME280;17137;51.494;-0.262;2023-07-20T01:56:08;49963.04;;;-145.72;65.86
28648;BME280;17137;51.494;-0.262;2023-07-20T01:56:38;49964.02;;;-145.72;65.34
28648;BME280;17137;51.494;-0.262;2023-07-20T01:57:09;49957.74;;;-145.72;65.22
28648;BME280;17137;51.494;-0.262;2023-07-20T01:57:39;49956.38;;;-145.72;65.04
28648;BME280;17137;51.494;-0.262;2023-07-20T01:58:10;49961.06;;;-145.72;65.11
28648;BME280;17137;51.494;-0.262;2023-07-20T01:58:40;49949.97;;;-145.72;64.76
28648;BME280;17137;51.494;-0.262;2023-07-20T01:59:10;49940.36;;;-145.72;64.25
28648;BME280;17137;51.494;-0.262;2023-07-20T01:59:40;49946.52;;;-145.72;63.91
28648;BME280;17137;51.494;-0.262;2023-07-20T02:00:12;49949.73;;;-145.72;63.55
28648;BME280;17137;51.494;-0.262;2023-07-20T02:00:42;49951.57;;;-145.72;63.44
28648;BME280;17137;51.494;-0.262;2023-07-20T02:01:12;49958.11;;;-145.72;63.57
28648;BME280;17137;51.494;-0.262;2023-07-20T02:01:42;49947.01;;;-145.72;63.59
28648;BME280;17137;51.494;-0.262;2023-07-20T02:02:13;49942.33;;;-145.72;63.31
28648;BME280;17137;51.494;-0.262;2023-07-20T02:02:43;49953.18;;;-145.72;62.99
28648;BME280;17137;51.494;-0.262;2023-07-20T02:03:13;49945.53;;;-145.72;62.68
28648;BME280;17137;51.494;-0.262;2023-07-20T02:03:43;49957.61;;;-145.72;62.84
28648;BME280;17137;51.494;-0.262;2023-07-20T02:04:14;49969.57;;;-145.72;63.38
28648;BME280;17137;51.494;-0.262;2023-07-20T02:04:44;49956.38;;;-145.72;63.08
28648;BME280;17137;51.494;-0.262;2023-07-20T02:05:14;49960.70;;;-145.72;62.71
28648;BME280;17137;51.494;-0.262;2023-07-20T02:05:45;49957.74;;;-145.72;62.42
28648;BME280;17137;51.494;-0.262;2023-07-20T02:06:15;49951.33;;;-145.72;62.05
28648;BME280;17137;51.494;-0.262;2023-07-20T02:06:45;49972.16;;;-145.72;62.79
28648;BME280;17137;51.494;-0.262;2023-07-20T02:07:15;49959.09;;;-145.72;62.58
28648;BME280;17137;51.494;-0.262;2023-07-20T02:07:51;49955.76;;;-145.72;62.43
28648;BME280;17137;51.494;-0.262;2023-07-20T02:08:21;49963.53;;;-145.72;61.75
28648;BME280;17137;51.494;-0.262;2023-07-20T02:08:51;49955.52;;;-145.72;60.82
28648;BME280;17137;51.494;-0.262;2023-07-20T02:09:22;49968.83;;;-145.72;60.72
28648;BME280;17137;51.494;-0.262;2023-07-20T02:09:52;49980.29;;;-145.72;60.32
28648;BME280;17137;51.494;-0.262;2023-07-20T02:10:22;49969.08;;;-145.72;60.08
28648;BME280;17137;51.494;-0.262;2023-07-20T02:10:52;49966.86;;;-145.72;58.93
28648;BME280;17137;51.494;-0.262;2023-07-20T02:11:23;49968.46;;;-145.72;58.91
28648;BME280;17137;51.494;-0.262;2023-07-20T02:11:53;49958.48;;;-145.72;58.43
28648;BME280;17137;51.494;-0.262;2023-07-20T02:12:23;49974.50;;;-145.72;57.56
28648;BME280;17137;51.494;-0.262;2023-07-20T02:12:53;49987.57;;;-145.72;58.61
28648;BME280;17137;51.494;-0.262;2023-07-20T02:13:24;49991.63;;;-145.72;58.70
28648;BME280;17137;51.494;-0.262;2023-07-20T02:13:54;49969.94;;;-145.72;58.10
28648;BME280;17137;51.494;-0.262;2023-07-20T02:14:24;49979.43;;;-145.72;57.68
28648;BME280;17137;51.494;-0.262;2023-07-20T02:14:54;49982.51;;;-145.72;57.83
28648;BME280;17137;51.494;-0.262;2023-07-20T02:15:25;49983.99;;;-145.72;57.80
28648;BME280;17137;51.494;-0.262;2023-07-20T02:15:55;49983.50;;;-145.72;57.41
28648;BME280;17137;51.494;-0.262;2023-07-20T02:16:25;49965.26;;;-145.72;57.13
28648;BME280;17137;51.494;-0.262;2023-07-20T02:16:56;49965.38;;;-145.72;56.86
28648;BME280;17137;51.494;-0.262;2023-07-20T02:17:26;49987.07;;;-145.72;57.02
28648;BME280;17137;51.494;-0.262;2023-07-20T02:17:56;49989.54;;;-145.72;57.13
28648;BME280;17137;51.494;-0.262;2023-07-20T02:18:26;49986.09;;;-145.72;56.91
28648;BME280;17137;51.494;-0.262;2023-07-20T02:18:56;49974.62;;;-145.72;56.48
28648;BME280;17137;51.494;-0.262;2023-07-20T02:19:27;49971.42;;;-145.72;56.26
28648;BME280;17137;51.494;-0.262;2023-07-20T02:19:58;49976.47;;;-145.72;55.84
28648;BME280;17137;51.494;-0.262;2023-07-20T02:20:28;49978.32;;;-145.72;56.49
28648;BME280;17137;51.494;-0.262;2023-07-20T02:20:58;49983.99;;;-145.72;56.42
28648;BME280;17137;51.494;-0.262;2023-07-20T02:21:28;49990.28;;;-145.72;56.36
28648;BME280;17137;51.494;-0.262;2023-07-20T02:21:59;49993.61;;;-145.72;56.51
28648;BME280;17137;51.494;-0.262;2023-07-20T02:22:29;50002.85;;;-145.72;56.56
28648;BME280;17137;51.494;-0.262;2023-07-20T02:22:59;49989.04;;;-145.72;56.14
28648;BME280;17137;51.494;-0.262;2023-07-20T02:23:30;49983.13;;;-145.72;55.58
28648;BME280;17137;51.494;-0.262;2023-07-20T02:24:00;49992.25;;;-145.72;55.37
28648;BME280;17137;51.494;-0.262;2023-07-20T02:24:30;50003.47;;;-145.72;56.01
28648;BME280;17137;51.494;-0.262;2023-07-20T02:25:00;49989.78;;;-145.72;55.82
28648;BME280;17137;51.494;-0.262;2023-07-20T02:25:31;49986.58;;;-145.72;55.60
28648;BME280;17137;51.494;-0.262;2023-07-20T02:26:01;49986.46;;;-145.72;55.33
28648;BME280;17137;51.494;-0.262;2023-07-20T02:26:31;49981.77;;;-145.72;55.09
28648;BME280;17137;51.494;-0.262;2023-07-20T02:27:01;49985.35;;;-145.72;55.05
28648;BME280;17137;51.494;-0.262;2023-07-20T02:27:32;49992.25;;;-145.72;55.36
28648;BME280;17137;51.494;-0.262;2023-07-20T02:28:03;49994.96;;;-145.72;55.29
28648;BME280;17137;51.494;-0.262;2023-07-20T02:28:34;50000.75;;;-145.72;55.74
28648;BME280;17137;51.494;-0.262;2023-07-20T02:29:04;49990.15;;;-145.72;55.27
28648;BME280;17137;51.494;-0.262;2023-07-20T02:29:35;49993.24;;;-145.72;54.94
28648;BME280;17137;51.494;-0.262;2023-07-20T02:30:06;49976.72;;;-145.72;54.24
28648;BME280;17137;51.494;-0.262;2023-07-20T02:30:38;49979.18;;;-145.72;54.01
28648;BME280;17137;51.494;-0.262;2023-07-20T02:31:08;49988.55;;;-145.72;53.99
28648;BME280;17137;51.494;-0.262;2023-07-20T02:31:38;49987.44;;;-145.72;54.06
28648;BME280;17137;51.494;-0.262;2023-07-20T02:32:09;49986.33;;;-145.72;53.77
28648;BME280;17137;51.494;-0.262;2023-07-20T02:32:39;49978.94;;;-145.72;53.87
28648;BME280;17137;51.494;-0.262;2023-07-20T02:33:09;49997.55;;;-145.72;54.11
28648;BME280;17137;51.494;-0.262;2023-07-20T02:33:40;49991.02;;;-145.72;54.10
28648;BME280;17137;51.494;-0.262;2023-07-20T02:34:10;49989.91;;;-145.72;54.09
28648;BME280;17137;51.494;-0.262;2023-07-20T02:34:40;49992.25;;;-145.72;54.06
28648;BME280;17137;51.494;-0.262;2023-07-20T02:35:10;50004.45;;;-145.72;53.96
28648;BME280;17137;51.494;-0.262;2023-07-20T02:35:41;49989.54;;;-145.72;53.61
28648;BME280;17137;51.494;-0.262;2023-07-20T02:36:11;49991.02;;;-145.72;53.36
28648;BME280;17137;51.494;-0.262;2023-07-20T02:36:41;49993.11;;;-145.72;53.21
28648;BME280;17137;51.494;-0.262;2023-07-20T02:37:12;49979.31;;;-145.72;52.96
28648;BME280;17137;51.494;-0.262;2023-07-20T02:37:42;49965.87;;;-145.72;52.82
28648;BME280;17137;51.494;-0.262;2023-07-20T02:38:12;49974.75;;;-145.72;52.53
28648;BME280;17137;51.494;-0.262;2023-07-20T02:38:43;49986.83;;;-145.72;52.84
28648;BME280;17137;51.494;-0.262;2023-07-20T02:39:13;49992.13;;;-145.72;53.21
28648;BME280;17137;51.494;-0.262;2023-07-20T02:39:43;50005.56;;;-145.72;53.45
28648;BME280;17137;51.494;-0.262;2023-07-20T02:40:13;50005.56;;;-145.72;53.30
28648;BME280;17137;51.494;-0.262;2023-07-20T02:40:44;49985.84;;;-145.72;53.34
28648;BME280;17137;51.494;-0.262;2023-07-20T02:41:14;49984.11;;;-145.72;53.04
28648;BME280;17137;51.494;-0.262;2023-07-20T02:41:44;49983.37;;;-145.72;52.97